SCEL 220500Z 17005KT 140V200 4000 1600NW BR SCT020 03/03 Q1022 NOSIG